createdAt,value
2023-01-21T00:01:04.100Z,22.55
2023-01-21T00:03:34.251Z,23.75
2023-01-21T00:06:02.019Z,24.45
2023-01-21T00:08:29.765Z,23.00
2023-01-21T00:10:57.381Z,24.73
2023-01-21T00:13:25.095Z,24.73
2023-01-21T00:15:55.238Z,24.13
2023-01-21T00:18:22.910Z,22.13
2023-01-21T00:20:51.859Z,21.98
2023-01-21T00:23:19.666Z,21.52
2023-01-21T00:25:47.240Z,23.30
2023-01-21T00:28:14.899Z,23.38
2023-01-21T00:30:42.612Z,23.70
2023-01-21T00:33:10.335Z,24.05
2023-01-21T00:35:37.900Z,23.60
2023-01-21T00:38:06.834Z,21.58
2023-01-21T00:40:34.400Z,23.08
2023-01-21T00:43:02.088Z,22.58
2023-01-21T00:45:29.729Z,24.17
2023-01-21T00:47:57.335Z,22.98
2023-01-21T00:50:24.906Z,23.05
2023-01-21T00:52:52.693Z,23.98
2023-01-21T00:55:21.711Z,24.65
2023-01-21T00:57:49.385Z,25.10
2023-01-21T01:00:18.632Z,22.30
2023-01-21T01:02:46.886Z,22.45
2023-01-21T01:05:14.900Z,22.40
2023-01-21T01:07:43.436Z,23.80
2023-01-21T01:10:12.139Z,22.98
2023-01-21T01:12:41.169Z,22.85
2023-01-21T01:15:09.487Z,23.45
2023-01-21T01:17:37.145Z,24.20
2023-01-21T01:20:05.439Z,23.77
2023-01-21T01:22:33.041Z,23.38
2023-01-21T01:25:00.650Z,24.58
2023-01-21T01:27:28.211Z,23.67
2023-01-21T01:29:57.156Z,23.13
2023-01-21T01:32:24.734Z,24.75
2023-01-21T01:34:52.354Z,25.33
2023-01-21T01:37:19.939Z,25.23
2023-01-21T01:39:47.571Z,24.10
2023-01-21T01:42:15.705Z,24.10
2023-01-21T01:44:59.318Z,24.20
2023-01-21T01:47:31.050Z,23.10
2023-01-21T01:50:00.047Z,24.10
2023-01-21T01:52:28.582Z,23.08
2023-01-21T01:54:58.065Z,22.52
2023-01-21T01:57:30.607Z,22.95
2023-01-21T02:00:01.991Z,22.92
2023-01-21T02:02:29.693Z,24.27
2023-01-21T02:05:00.439Z,24.40
2023-01-21T02:07:30.423Z,24.17
2023-01-21T02:09:58.084Z,23.20
2023-01-21T02:12:26.096Z,25.05
2023-01-21T02:14:53.730Z,23.40
2023-01-21T02:17:32.923Z,22.98
2023-01-21T02:20:35.460Z,23.33
2023-01-21T02:23:06.836Z,22.08
2023-01-21T02:26:05.294Z,23.90
2023-01-21T02:28:48.604Z,23.60
2023-01-21T02:31:33.939Z,22.95
2023-01-21T02:34:16.204Z,23.52
2023-01-21T02:36:52.982Z,23.92
2023-01-21T02:39:27.777Z,24.65
2023-01-21T02:42:01.801Z,23.17
2023-01-21T02:44:34.902Z,23.35
2023-01-21T02:47:08.037Z,24.90
2023-01-21T02:49:39.478Z,21.88
2023-01-21T02:52:07.048Z,22.65
2023-01-21T02:54:53.044Z,20.98
2023-01-21T02:57:40.207Z,21.67
2023-01-21T03:00:12.599Z,22.17
2023-01-21T03:03:16.579Z,21.73
2023-01-21T03:06:08.035Z,22.40
2023-01-21T03:08:42.175Z,21.95
2023-01-21T03:11:14.321Z,20.67
2023-01-21T03:14:01.103Z,22.42
2023-01-21T03:16:49.552Z,24.55
2023-01-21T03:19:18.435Z,19.65
2023-01-21T03:21:48.213Z,21.60
2023-01-21T03:24:15.984Z,19.90
2023-01-21T03:26:45.684Z,21.40
2023-01-21T03:29:16.245Z,22.80
2023-01-21T03:31:45.238Z,22.40
2023-01-21T03:34:14.755Z,21.10
2023-01-21T03:36:46.452Z,20.83
2023-01-21T03:39:19.951Z,22.17
2023-01-21T03:41:48.236Z,21.85
2023-01-21T03:44:15.786Z,22.80
2023-01-21T03:46:49.206Z,22.17
2023-01-21T03:49:19.549Z,26.08
2023-01-21T03:51:51.587Z,22.35
2023-01-21T03:54:20.587Z,22.92
2023-01-21T03:56:48.159Z,22.70
2023-01-21T03:59:15.840Z,24.58
2023-01-21T04:01:43.676Z,22.50
2023-01-21T04:04:11.661Z,24.83
2023-01-21T04:06:39.268Z,22.40
2023-01-21T04:09:07.569Z,21.65
2023-01-21T04:11:36.543Z,20.30
2023-01-21T04:14:04.150Z,22.13
2023-01-21T04:16:31.760Z,23.52
2023-01-21T04:18:59.366Z,21.85
2023-01-21T04:21:27.090Z,22.42
2023-01-21T04:23:55.239Z,23.13
2023-01-21T04:26:22.851Z,23.83
2023-01-21T04:28:51.777Z,23.25
2023-01-21T04:31:19.436Z,22.25
2023-01-21T04:33:47.046Z,23.33
2023-01-21T04:36:14.665Z,23.30
2023-01-21T04:38:42.415Z,22.80
2023-01-21T04:41:09.973Z,21.52
2023-01-21T04:43:37.606Z,22.38
2023-01-21T04:46:06.979Z,22.73
2023-01-21T04:48:34.598Z,21.35
2023-01-21T04:51:02.428Z,23.50
2023-01-21T04:53:30.115Z,22.13
2023-01-21T04:55:57.845Z,22.98
2023-01-21T04:58:26.579Z,22.08
2023-01-21T05:00:55.338Z,23.02
2023-01-21T05:03:24.419Z,22.90
2023-01-21T05:05:51.990Z,22.27
2023-01-21T05:08:19.623Z,21.50
2023-01-21T05:10:47.200Z,22.13
2023-01-21T05:13:14.880Z,21.67
2023-01-21T05:15:42.507Z,20.92
2023-01-21T05:18:10.138Z,22.17
2023-01-21T05:20:39.098Z,23.27
2023-01-21T05:23:06.691Z,22.02
2023-01-21T05:25:34.264Z,22.20
2023-01-21T05:28:01.844Z,21.92
2023-01-21T05:30:29.521Z,21.50
2023-01-21T05:32:57.438Z,22.30
2023-01-21T05:35:25.795Z,21.00
2023-01-21T05:37:54.795Z,23.67
2023-01-21T05:40:22.630Z,23.05
2023-01-21T05:42:50.201Z,23.65
2023-01-21T05:45:18.012Z,23.40
2023-01-21T05:47:45.646Z,21.13
2023-01-21T05:50:13.736Z,21.98
2023-01-21T05:52:41.342Z,20.52
2023-01-21T05:55:10.772Z,23.73
2023-01-21T05:57:38.382Z,22.20
2023-01-21T06:00:07.138Z,23.35
2023-01-21T06:02:34.794Z,20.65
2023-01-21T06:05:02.411Z,23.98
2023-01-21T06:07:30.035Z,20.98
2023-01-21T06:09:57.643Z,24.10
2023-01-21T06:12:26.624Z,21.67
2023-01-21T06:14:54.347Z,21.02
2023-01-21T06:17:21.986Z,21.80
2023-01-21T06:19:49.521Z,23.08
2023-01-21T06:22:17.566Z,23.40
2023-01-21T06:24:45.525Z,21.80
2023-01-21T06:27:13.329Z,21.10
2023-01-21T06:29:42.276Z,21.15
2023-01-21T06:32:09.883Z,20.13
2023-01-21T06:34:37.557Z,21.70
2023-01-21T06:37:05.144Z,17.95
2023-01-21T06:39:32.786Z,19.27
2023-01-21T06:42:00.527Z,21.90
2023-01-21T06:44:28.143Z,19.65
2023-01-21T06:47:01.136Z,20.05
2023-01-21T06:49:29.206Z,18.92
2023-01-21T06:51:56.894Z,21.13
2023-01-21T06:54:24.488Z,24.15
2023-01-21T06:56:52.081Z,23.80
2023-01-21T06:59:19.660Z,21.67
2023-01-21T07:01:47.326Z,20.83
2023-01-21T07:04:16.435Z,18.60
2023-01-21T07:06:44.010Z,22.98
2023-01-21T07:09:12.029Z,18.35
2023-01-21T07:11:39.614Z,18.13
2023-01-21T07:14:07.209Z,20.17
2023-01-21T07:16:34.793Z,20.55
2023-01-21T07:19:02.387Z,20.60
2023-01-21T07:21:31.342Z,22.83
2023-01-21T07:24:00.461Z,21.55
2023-01-21T07:26:28.085Z,21.23
2023-01-21T07:28:55.660Z,22.15
2023-01-21T07:31:23.414Z,21.45
2023-01-21T07:33:51.077Z,20.17
2023-01-21T07:36:18.649Z,20.38
2023-01-21T07:38:47.666Z,19.58
2023-01-21T07:41:15.331Z,18.95
2023-01-21T07:43:42.915Z,19.02
2023-01-21T07:46:10.514Z,18.67
2023-01-21T07:48:38.182Z,19.35
2023-01-21T07:51:06.217Z,21.20
2023-01-21T07:53:33.830Z,23.40
2023-01-21T07:56:05.779Z,21.25
2023-01-21T08:01:00.849Z,20.75
2023-01-21T08:03:28.435Z,22.20
2023-01-21T08:05:56.000Z,23.38
2023-01-21T08:08:23.702Z,22.10
2023-01-21T08:10:52.749Z,21.08
2023-01-21T08:13:21.967Z,22.25
2023-01-21T08:15:51.060Z,20.65
2023-01-21T08:18:18.822Z,21.10
2023-01-21T08:20:46.573Z,22.00
2023-01-21T08:23:14.255Z,21.67
2023-01-21T08:25:42.011Z,19.95
2023-01-21T08:28:09.584Z,20.65
2023-01-21T08:30:38.588Z,22.42
2023-01-21T08:33:06.560Z,21.42
2023-01-21T08:35:34.854Z,22.58
2023-01-21T08:38:02.578Z,22.05
2023-01-21T08:40:30.302Z,21.30
2023-01-21T08:43:01.563Z,23.35
2023-01-21T08:45:29.429Z,20.45
2023-01-21T08:47:58.432Z,21.80
2023-01-21T08:50:26.089Z,20.45
2023-01-21T08:52:54.052Z,21.20
2023-01-21T08:55:24.917Z,22.15
2023-01-21T08:57:53.470Z,23.58
2023-01-21T09:00:22.212Z,22.15
2023-01-21T09:02:51.601Z,21.75
2023-01-21T09:05:21.033Z,21.90
2023-01-21T09:07:48.650Z,22.02
2023-01-21T09:10:37.402Z,19.95
2023-01-21T09:13:06.021Z,19.27
2023-01-21T09:15:37.668Z,20.38
2023-01-21T09:18:05.399Z,21.90
2023-01-21T09:20:34.451Z,20.55
2023-01-21T09:23:02.116Z,21.00
2023-01-21T09:25:29.698Z,24.55
2023-01-21T09:27:57.302Z,23.48
2023-01-21T09:30:24.942Z,24.42
2023-01-21T09:32:52.534Z,21.98
2023-01-21T09:35:20.175Z,22.38
2023-01-21T09:37:49.107Z,21.15
2023-01-21T09:40:17.951Z,20.95
2023-01-21T09:42:47.258Z,22.05
2023-01-21T09:45:16.381Z,21.65
2023-01-21T09:47:46.144Z,23.90
2023-01-21T09:50:16.607Z,20.42
2023-01-21T09:52:45.817Z,21.83
2023-01-21T09:55:17.764Z,20.33
2023-01-21T09:58:08.961Z,20.80
2023-01-21T10:00:38.388Z,20.95
2023-01-21T10:03:15.999Z,22.13
2023-01-21T10:06:19.461Z,20.33
2023-01-21T10:09:40.871Z,21.13
2023-01-21T10:12:23.224Z,19.33
2023-01-21T10:15:05.843Z,20.80
2023-01-21T10:17:47.522Z,21.60
2023-01-21T10:20:18.449Z,19.48
2023-01-21T10:22:50.612Z,14.10
2023-01-21T10:25:21.508Z,20.65
2023-01-21T10:27:50.667Z,21.02
2023-01-21T10:30:25.327Z,21.42
2023-01-21T10:32:55.582Z,21.13
2023-01-21T10:35:31.573Z,18.42
2023-01-21T10:38:05.980Z,19.55
2023-01-21T10:40:45.616Z,20.13
2023-01-21T10:43:21.159Z,20.73
2023-01-21T10:45:56.058Z,21.58
2023-01-21T10:48:29.727Z,20.70
2023-01-21T10:51:02.030Z,19.25
2023-01-21T10:53:34.562Z,19.58
2023-01-21T10:56:10.190Z,20.90
2023-01-21T10:58:42.968Z,20.00
2023-01-21T11:01:17.730Z,19.95
2023-01-21T11:03:47.509Z,22.45
2023-01-21T11:06:17.457Z,19.75
2023-01-21T11:08:47.008Z,19.60
2023-01-21T11:11:16.085Z,20.02
2023-01-21T11:13:45.488Z,21.00
2023-01-21T11:16:13.411Z,19.52
2023-01-21T11:18:42.676Z,20.65
2023-01-21T11:21:18.630Z,20.50
2023-01-21T11:23:54.528Z,19.25
2023-01-21T11:26:25.680Z,19.95
2023-01-21T11:29:08.623Z,18.55
2023-01-21T11:31:37.257Z,18.67
2023-01-21T11:34:06.225Z,17.80
2023-01-21T11:36:34.237Z,18.67
2023-01-21T11:39:03.988Z,18.30
2023-01-21T11:41:32.203Z,19.30
2023-01-21T11:44:11.591Z,19.23
2023-01-21T11:46:41.069Z,19.70
2023-01-21T11:49:33.270Z,18.88
2023-01-21T11:52:16.233Z,16.55
2023-01-21T11:54:44.506Z,19.17
2023-01-21T11:57:26.597Z,17.55
2023-01-21T12:02:30.114Z,17.33
2023-01-21T12:05:00.777Z,20.58
2023-01-21T12:07:31.540Z,18.77
2023-01-21T12:10:06.779Z,18.23
2023-01-21T12:12:44.031Z,19.05
2023-01-21T12:15:23.193Z,19.00
2023-01-21T12:17:55.787Z,20.38
2023-01-21T12:20:29.453Z,19.75
2023-01-21T12:23:08.065Z,19.02
2023-01-21T12:25:41.891Z,19.25
2023-01-21T12:28:24.393Z,17.17
2023-01-21T12:30:59.345Z,17.52
2023-01-21T12:33:41.715Z,17.92
2023-01-21T12:36:12.901Z,19.00
2023-01-21T12:38:43.629Z,19.00
2023-01-21T12:41:15.554Z,17.38
2023-01-21T12:46:17.590Z,18.38
2023-01-21T12:48:49.489Z,18.67
2023-01-21T12:51:22.365Z,17.80
2023-01-21T12:53:54.444Z,15.93
2023-01-21T12:56:27.338Z,17.33
2023-01-21T12:58:58.065Z,19.33
2023-01-21T13:01:42.716Z,19.70
2023-01-21T13:04:22.480Z,19.48
2023-01-21T13:06:54.617Z,20.10
2023-01-21T13:09:30.795Z,16.20
2023-01-21T13:12:01.263Z,19.30
2023-01-21T13:14:32.410Z,17.17
2023-01-21T13:17:04.650Z,18.58
2023-01-21T13:19:33.557Z,18.80
2023-01-21T13:22:05.861Z,18.73
2023-01-21T13:24:36.053Z,19.30
2023-01-21T13:27:10.494Z,18.05
2023-01-21T13:29:45.481Z,19.15
2023-01-21T13:32:25.879Z,19.15
2023-01-21T13:34:58.754Z,20.42
2023-01-21T13:37:32.408Z,21.10
2023-01-21T13:40:23.528Z,20.00
2023-01-21T13:42:56.926Z,18.05
2023-01-21T13:45:34.873Z,17.70
2023-01-21T13:48:20.158Z,18.98
2023-01-21T13:51:09.584Z,18.27
2023-01-21T13:53:49.612Z,19.00
2023-01-21T13:56:29.436Z,18.33
2023-01-21T13:58:59.844Z,20.60
2023-01-21T14:01:30.769Z,18.90
2023-01-21T14:04:04.274Z,20.35
2023-01-21T14:06:35.927Z,18.92
2023-01-21T14:09:06.015Z,21.02
2023-01-21T14:11:36.793Z,18.67
2023-01-21T14:14:47.771Z,18.80
2023-01-21T14:17:28.563Z,21.02
2023-01-21T14:20:14.482Z,18.05
2023-01-21T14:22:58.020Z,17.83
2023-01-21T14:25:34.205Z,17.45
2023-01-21T14:28:08.514Z,15.90
2023-01-21T14:30:41.426Z,17.83
2023-01-21T14:33:11.046Z,18.05
2023-01-21T14:35:43.542Z,17.67
2023-01-21T14:38:17.596Z,18.65
2023-01-21T14:40:47.049Z,17.48
2023-01-21T14:43:20.513Z,21.42
2023-01-21T14:45:55.658Z,28.33
2023-01-21T14:48:31.176Z,26.98
2023-01-21T14:51:13.098Z,22.73
2023-01-21T14:53:46.796Z,18.92
2023-01-21T14:56:20.957Z,18.05
2023-01-21T14:58:51.398Z,19.83
2023-01-21T15:01:35.186Z,18.02
2023-01-21T15:04:07.525Z,18.67
2023-01-21T15:06:40.319Z,18.13
2023-01-21T15:09:09.404Z,17.88
2023-01-21T15:11:38.411Z,19.02
2023-01-21T15:14:13.739Z,18.95
2023-01-21T15:16:42.537Z,20.40
2023-01-21T15:19:24.290Z,17.08
2023-01-21T15:22:15.989Z,18.40
2023-01-21T15:25:02.662Z,19.70
2023-01-21T15:27:32.908Z,16.58
2023-01-21T15:30:28.239Z,17.55
2023-01-21T15:32:56.296Z,15.40
2023-01-21T15:35:26.214Z,17.77
2023-01-21T15:38:09.641Z,16.02
2023-01-21T15:40:39.273Z,17.05
2023-01-21T15:43:15.404Z,16.50
2023-01-21T15:45:48.672Z,15.27
2023-01-21T15:48:41.263Z,15.75
2023-01-21T15:51:20.694Z,15.60
2023-01-21T15:54:02.239Z,16.75
2023-01-21T15:56:42.569Z,11.05
2023-01-21T15:59:23.047Z,15.10
2023-01-21T16:02:04.425Z,16.98
2023-01-21T16:04:35.740Z,14.65
2023-01-21T16:07:14.080Z,14.95
2023-01-21T16:09:52.266Z,15.45
2023-01-21T16:12:24.807Z,13.68
2023-01-21T16:15:01.130Z,15.07
2023-01-21T16:17:59.953Z,14.55
2023-01-21T16:20:36.977Z,15.32
2023-01-21T16:23:07.613Z,13.57
2023-01-21T16:25:55.110Z,16.25
2023-01-21T16:28:23.309Z,14.60
2023-01-21T16:30:58.732Z,14.05
2023-01-21T16:34:10.989Z,11.60
2023-01-21T16:36:29.027Z,13.25
2023-01-21T16:38:56.715Z,13.02
2023-01-21T16:41:27.730Z,14.68
2023-01-21T16:43:57.776Z,17.07
2023-01-21T16:46:27.771Z,14.70
2023-01-21T16:48:58.394Z,13.77
2023-01-21T16:51:29.830Z,14.00
2023-01-21T16:54:28.735Z,14.30
2023-01-21T16:57:00.163Z,14.77
2023-01-21T16:59:41.929Z,13.05
2023-01-21T17:02:17.761Z,12.27
2023-01-21T17:04:45.470Z,12.70
2023-01-21T17:07:15.364Z,12.98
2023-01-21T17:09:43.020Z,14.18
2023-01-21T17:12:20.692Z,12.85
2023-01-21T17:14:48.361Z,13.13
2023-01-21T17:17:22.045Z,13.25
2023-01-21T17:19:51.203Z,11.63
2023-01-21T17:22:20.966Z,12.50
2023-01-21T17:24:59.137Z,12.45
2023-01-21T17:27:28.701Z,11.95
2023-01-21T17:30:26.887Z,11.93
2023-01-21T17:32:56.013Z,12.43
2023-01-21T17:35:24.599Z,12.93
2023-01-21T17:37:56.789Z,12.40
2023-01-21T17:40:29.844Z,13.05
2023-01-21T17:42:58.689Z,13.13
2023-01-21T17:45:32.596Z,14.25
2023-01-21T17:48:12.537Z,13.50
2023-01-21T17:50:45.879Z,13.07
2023-01-21T17:53:20.284Z,13.95
2023-01-21T17:55:57.415Z,14.98
2023-01-21T17:58:49.848Z,13.48
2023-01-21T18:01:20.118Z,12.48
2023-01-21T18:03:47.918Z,12.65
2023-01-21T18:06:20.451Z,20.88
2023-01-21T18:08:50.454Z,13.57
2023-01-21T18:11:18.783Z,12.25
2023-01-21T18:13:46.622Z,12.45
2023-01-21T18:16:14.581Z,12.98
2023-01-21T18:18:43.738Z,12.45
2023-01-21T18:21:18.215Z,13.30
2023-01-21T18:23:45.928Z,15.35
2023-01-21T18:26:18.654Z,14.20
2023-01-21T18:28:46.301Z,15.77
2023-01-21T18:31:14.088Z,14.23
2023-01-21T18:33:43.231Z,13.75
2023-01-21T18:36:11.947Z,12.82
2023-01-21T18:38:39.742Z,14.10
2023-01-21T18:41:08.853Z,14.65
2023-01-21T18:43:36.536Z,13.48
2023-01-21T18:46:04.275Z,13.32
2023-01-21T18:48:33.355Z,14.88
2023-01-21T18:51:02.410Z,14.50
2023-01-21T18:53:30.101Z,13.93
2023-01-21T18:55:58.602Z,13.13
2023-01-21T18:58:26.234Z,14.40
2023-01-21T19:00:54.122Z,15.40
2023-01-21T19:03:23.190Z,15.15
2023-01-21T19:05:51.086Z,14.32
2023-01-21T19:08:24.527Z,16.15
2023-01-21T19:10:52.192Z,15.27
2023-01-21T19:13:19.884Z,17.20
2023-01-21T19:15:47.942Z,16.17
2023-01-21T19:18:16.690Z,14.38
2023-01-21T19:20:44.389Z,14.05
2023-01-21T19:23:15.531Z,14.45
2023-01-21T19:25:45.221Z,10.43
2023-01-21T19:28:13.352Z,15.85
2023-01-21T19:30:45.139Z,13.95
2023-01-21T19:35:42.829Z,14.60
2023-01-21T19:38:12.717Z,15.45
2023-01-21T19:40:40.464Z,12.95
2023-01-21T19:43:12.052Z,14.82
2023-01-21T19:45:39.639Z,13.82
2023-01-21T19:48:11.787Z,15.18
2023-01-21T19:50:39.449Z,14.07
2023-01-21T19:53:07.083Z,14.82
2023-01-21T19:55:36.931Z,15.20
2023-01-21T19:58:06.463Z,14.55
2023-01-21T20:00:36.466Z,14.05
2023-01-21T20:03:04.580Z,14.25
2023-01-21T20:05:33.909Z,16.35
2023-01-21T20:08:01.877Z,15.13
2023-01-21T20:10:31.181Z,15.35
2023-01-21T20:12:59.097Z,14.52
2023-01-21T20:15:30.064Z,14.75
2023-01-21T20:18:00.488Z,14.73
2023-01-21T20:20:29.433Z,14.88
2023-01-21T20:22:57.433Z,15.07
2023-01-21T20:25:26.617Z,13.77
2023-01-21T20:27:56.337Z,14.90
2023-01-21T20:30:25.755Z,15.52
2023-01-21T20:32:53.452Z,15.55
2023-01-21T20:35:24.546Z,16.52
2023-01-21T20:37:53.003Z,15.27
2023-01-21T20:40:23.048Z,14.63
2023-01-21T20:42:51.793Z,15.63
2023-01-21T20:45:22.327Z,14.40
2023-01-21T20:47:52.793Z,13.68
2023-01-21T20:50:23.187Z,15.20
2023-01-21T20:52:51.787Z,14.02
2023-01-21T20:55:21.232Z,15.20
2023-01-21T20:57:49.254Z,14.73
2023-01-21T21:00:24.061Z,14.43
2023-01-21T21:02:51.841Z,15.02
2023-01-21T21:05:19.876Z,15.10
2023-01-21T21:07:49.393Z,15.20
2023-01-21T21:10:20.950Z,14.93
2023-01-21T21:12:49.307Z,15.20
2023-01-21T21:15:17.964Z,14.05
2023-01-21T21:17:46.937Z,14.65
2023-01-21T21:20:19.819Z,14.38
2023-01-21T21:22:48.967Z,13.48
2023-01-21T21:25:18.307Z,14.60
2023-01-21T21:27:46.759Z,14.50
2023-01-21T21:30:16.906Z,14.82
2023-01-21T21:32:44.962Z,15.50
2023-01-21T21:35:23.754Z,14.23
2023-01-21T21:37:53.438Z,14.40
2023-01-21T21:40:23.114Z,14.85
2023-01-21T21:43:08.827Z,15.38
2023-01-21T21:45:37.115Z,15.55
2023-01-21T21:48:22.692Z,12.68
2023-01-21T21:50:56.607Z,16.83
2023-01-21T21:53:25.682Z,14.98
2023-01-21T21:55:53.333Z,15.43
2023-01-21T21:58:20.934Z,16.40
2023-01-21T22:00:52.645Z,14.38
2023-01-21T22:03:20.310Z,14.18
2023-01-21T22:05:52.160Z,14.80
2023-01-21T22:08:19.780Z,14.45
2023-01-21T22:10:57.463Z,15.23
2023-01-21T22:13:25.467Z,14.85
2023-01-21T22:15:56.616Z,15.35
2023-01-21T22:18:24.872Z,11.50
2023-01-21T22:21:25.842Z,13.82
2023-01-21T22:23:45.626Z,14.48
2023-01-21T22:41:22.335Z,15.57
2023-01-21T22:43:15.919Z,16.55
2023-01-21T22:43:51.742Z,16.98
2023-01-21T22:46:21.122Z,16.02
2023-01-21T22:48:48.951Z,15.95
2023-01-21T22:51:18.642Z,16.92
2023-01-21T22:53:46.645Z,16.17
2023-01-21T22:56:15.430Z,16.35
2023-01-21T22:58:43.325Z,15.10
2023-01-21T23:01:21.761Z,15.77
2023-01-21T23:03:49.502Z,16.92
2023-01-21T23:06:17.455Z,16.05
2023-01-21T23:08:45.361Z,15.80
2023-01-21T23:11:14.023Z,16.92
2023-01-21T23:13:41.626Z,17.73
2023-01-21T23:16:10.602Z,17.65
2023-01-21T23:18:42.019Z,18.55
2023-01-21T23:21:11.406Z,18.50
2023-01-21T23:23:39.619Z,17.98
2023-01-21T23:26:09.133Z,18.55
2023-01-21T23:28:37.571Z,17.00
2023-01-21T23:31:06.411Z,17.13
2023-01-21T23:33:34.307Z,16.98
2023-01-21T23:36:03.600Z,17.73
2023-01-21T23:38:31.810Z,16.42
2023-01-21T23:40:59.953Z,18.08
2023-01-21T23:43:28.063Z,17.02
2023-01-21T23:45:56.315Z,16.13
2023-01-21T23:48:24.678Z,17.00
2023-01-21T23:50:52.557Z,16.17
2023-01-21T23:53:21.691Z,16.88
2023-01-21T23:55:49.452Z,16.63
2023-01-21T23:58:19.941Z,15.50
